sensor_id;sensor_type;location;lat;lon;timestamp;temperature;humidity
61374;DHT22;47242;48.158;-1.586;2023-06-14T04:31:24;17.70;74.30
61374;DHT22;47242;48.158;-1.586;2023-06-14T04:33:50;17.70;74.50
61374;DHT22;47242;48.158;-1.586;2023-06-14T04:36:19;17.70;74.20
61374;DHT22;47242;48.158;-1.586;2023-06-14T04:38:45;17.70;74.40
61374;DHT22;47242;48.158;-1.586;2023-06-14T04:41:11;17.70;74.70
61374;DHT22;47242;48.158;-1.586;2023-06-14T04:43:37;17.70;74.60
61374;DHT22;47242;48.158;-1.586;2023-06-14T04:46:06;17.70;74.60
61374;DHT22;47242;48.158;-1.586;2023-06-14T04:48:37;17.70;74.50
61374;DHT22;47242;48.158;-1.586;2023-06-14T04:51:03;17.80;74.70
61374;DHT22;47242;48.158;-1.586;2023-06-14T04:53:29;17.80;74.40
61374;DHT22;47242;48.158;-1.586;2023-06-14T04:55:55;17.70;74.90
61374;DHT22;47242;48.158;-1.586;2023-06-14T04:58:20;17.70;74.70
61374;DHT22;47242;48.158;-1.586;2023-06-14T05:00:46;17.70;74.70
61374;DHT22;47242;48.158;-1.586;2023-06-14T05:03:12;17.80;74.40
61374;DHT22;47242;48.158;-1.586;2023-06-14T05:05:39;17.80;74.80
61374;DHT22;47242;48.158;-1.586;2023-06-14T05:08:06;17.80;74.70
61374;DHT22;47242;48.158;-1.586;2023-06-14T05:10:31;17.80;74.90
61374;DHT22;47242;48.158;-1.586;2023-06-14T05:13:00;17.80;74.70
61374;DHT22;47242;48.158;-1.586;2023-06-14T05:15:25;17.80;75.00
61374;DHT22;47242;48.158;-1.586;2023-06-14T05:17:52;17.80;74.50
61374;DHT22;47242;48.158;-1.586;2023-06-14T05:20:22;17.80;75.10
61374;DHT22;47242;48.158;-1.586;2023-06-14T05:22:50;17.80;74.80
61374;DHT22;47242;48.158;-1.586;2023-06-14T05:25:17;17.90;74.70
61374;DHT22;47242;48.158;-1.586;2023-06-14T05:27:43;17.80;74.90
61374;DHT22;47242;48.158;-1.586;2023-06-14T05:30:09;17.80;75.10
61374;DHT22;47242;48.158;-1.586;2023-06-14T05:32:35;17.80;75.40
61374;DHT22;47242;48.158;-1.586;2023-06-14T05:35:01;17.80;75.50
61374;DHT22;47242;48.158;-1.586;2023-06-14T05:37:26;17.90;75.20
61374;DHT22;47242;48.158;-1.586;2023-06-14T05:39:52;18.00;75.10
61374;DHT22;47242;48.158;-1.586;2023-06-14T05:42:18;18.00;75.10
61374;DHT22;47242;48.158;-1.586;2023-06-14T05:44:43;18.00;75.00
61374;DHT22;47242;48.158;-1.586;2023-06-14T05:47:09;18.10;75.00
61374;DHT22;47242;48.158;-1.586;2023-06-14T05:49:34;18.10;74.80
61374;DHT22;47242;48.158;-1.586;2023-06-14T05:52:00;18.20;75.10
61374;DHT22;47242;48.158;-1.586;2023-06-14T05:54:26;18.20;74.90
61374;DHT22;47242;48.158;-1.586;2023-06-14T05:56:52;18.20;74.70
61374;DHT22;47242;48.158;-1.586;2023-06-14T05:59:17;18.30;74.40
61374;DHT22;47242;48.158;-1.586;2023-06-14T06:01:43;18.30;74.60
61374;DHT22;47242;48.158;-1.586;2023-06-14T06:04:09;18.30;74.90
61374;DHT22;47242;48.158;-1.586;2023-06-14T06:06:34;18.30;74.60
61374;DHT22;47242;48.158;-1.586;2023-06-14T06:09:01;18.40;74.50
61374;DHT22;47242;48.158;-1.586;2023-06-14T06:11:26;18.40;74.50
61374;DHT22;47242;48.158;-1.586;2023-06-14T06:13:52;18.50;74.20
61374;DHT22;47242;48.158;-1.586;2023-06-14T06:16:18;18.60;74.20
61374;DHT22;47242;48.158;-1.586;2023-06-14T06:18:43;18.60;74.40
61374;DHT22;47242;48.158;-1.586;2023-06-14T06:21:09;18.60;74.00
61374;DHT22;47242;48.158;-1.586;2023-06-14T06:23:35;18.70;73.90
61374;DHT22;47242;48.158;-1.586;2023-06-14T06:26:01;18.70;74.10
61374;DHT22;47242;48.158;-1.586;2023-06-14T06:28:26;18.80;74.10
61374;DHT22;47242;48.158;-1.586;2023-06-14T06:30:52;18.80;73.70
61374;DHT22;47242;48.158;-1.586;2023-06-14T06:33:18;18.80;73.70
61374;DHT22;47242;48.158;-1.586;2023-06-14T06:35:44;18.90;73.50
61374;DHT22;47242;48.158;-1.586;2023-06-14T06:38:10;18.90;73.80
61374;DHT22;47242;48.158;-1.586;2023-06-14T06:40:36;18.90;73.50
61374;DHT22;47242;48.158;-1.586;2023-06-14T06:43:02;19.00;73.70
61374;DHT22;47242;48.158;-1.586;2023-06-14T06:45:28;19.00;73.80
61374;DHT22;47242;48.158;-1.586;2023-06-14T06:47:54;19.10;73.70
61374;DHT22;47242;48.158;-1.586;2023-06-14T06:50:21;19.10;73.60
61374;DHT22;47242;48.158;-1.586;2023-06-14T06:52:48;19.10;73.70
61374;DHT22;47242;48.158;-1.586;2023-06-14T06:55:14;19.20;73.70
61374;DHT22;47242;48.158;-1.586;2023-06-14T06:57:40;19.20;73.80
61374;DHT22;47242;48.158;-1.586;2023-06-14T07:00:07;19.30;73.70
61374;DHT22;47242;48.158;-1.586;2023-06-14T07:02:36;19.30;73.30
61374;DHT22;47242;48.158;-1.586;2023-06-14T07:05:02;19.40;73.10
61374;DHT22;47242;48.158;-1.586;2023-06-14T07:07:27;19.60;72.50
61374;DHT22;47242;48.158;-1.586;2023-06-14T07:09:53;19.60;72.50
61374;DHT22;47242;48.158;-1.586;2023-06-14T07:12:19;19.70;72.10
61374;DHT22;47242;48.158;-1.586;2023-06-14T07:14:45;19.80;72.00
61374;DHT22;47242;48.158;-1.586;2023-06-14T07:17:11;19.80;72.10
61374;DHT22;47242;48.158;-1.586;2023-06-14T07:19:36;19.80;72.30
61374;DHT22;47242;48.158;-1.586;2023-06-14T07:22:02;19.80;72.20
61374;DHT22;47242;48.158;-1.586;2023-06-14T07:24:28;20.00;72.20
61374;DHT22;47242;48.158;-1.586;2023-06-14T07:26:54;20.00;72.40
61374;DHT22;47242;48.158;-1.586;2023-06-14T07:29:20;20.10;72.10
61374;DHT22;47242;48.158;-1.586;2023-06-14T07:31:46;20.20;72.40
61374;DHT22;47242;48.158;-1.586;2023-06-14T07:34:12;20.40;71.80
61374;DHT22;47242;48.158;-1.586;2023-06-14T07:36:38;20.60;71.20
61374;DHT22;47242;48.158;-1.586;2023-06-14T07:39:04;20.80;70.80
61374;DHT22;47242;48.158;-1.586;2023-06-14T07:41:31;21.00;70.00
61374;DHT22;47242;48.158;-1.586;2023-06-14T07:43:57;21.90;68.20
61374;DHT22;47242;48.158;-1.586;2023-06-14T07:46:22;22.90;64.60
61374;DHT22;47242;48.158;-1.586;2023-06-14T07:48:48;24.90;59.50
61374;DHT22;47242;48.158;-1.586;2023-06-14T07:51:14;27.30;53.40
61374;DHT22;47242;48.158;-1.586;2023-06-14T07:53:39;29.30;48.30
61374;DHT22;47242;48.158;-1.586;2023-06-14T07:56:06;30.90;44.00
61374;DHT22;47242;48.158;-1.586;2023-06-14T07:58:32;32.30;41.60
61374;DHT22;47242;48.158;-1.586;2023-06-14T08:00:57;33.50;38.90
61374;DHT22;47242;48.158;-1.586;2023-06-14T08:03:23;34.10;37.40
61374;DHT22;47242;48.158;-1.586;2023-06-14T08:05:49;34.70;37.10
61374;DHT22;47242;48.158;-1.586;2023-06-14T08:08:15;35.30;36.30
61374;DHT22;47242;48.158;-1.586;2023-06-14T08:10:41;35.50;34.40
61374;DHT22;47242;48.158;-1.586;2023-06-14T08:13:07;36.00;34.20
61374;DHT22;47242;48.158;-1.586;2023-06-14T08:15:34;36.50;34.00
61374;DHT22;47242;48.158;-1.586;2023-06-14T08:18:00;37.00;33.30
61374;DHT22;47242;48.158;-1.586;2023-06-14T08:20:26;37.10;32.60
61374;DHT22;47242;48.158;-1.586;2023-06-14T08:22:52;37.30;32.70
61374;DHT22;47242;48.158;-1.586;2023-06-14T08:25:22;37.60;32.50
61374;DHT22;47242;48.158;-1.586;2023-06-14T08:27:47;37.80;31.90
61374;DHT22;47242;48.158;-1.586;2023-06-14T08:30:13;37.80;31.90
61374;DHT22;47242;48.158;-1.586;2023-06-14T08:32:39;37.80;32.10
61374;DHT22;47242;48.158;-1.586;2023-06-14T08:35:05;38.10;31.70
61374;DHT22;47242;48.158;-1.586;2023-06-14T08:37:32;37.90;31.70
61374;DHT22;47242;48.158;-1.586;2023-06-14T08:40:02;37.70;32.30
61374;DHT22;47242;48.158;-1.586;2023-06-14T08:42:32;37.80;32.90
61374;DHT22;47242;48.158;-1.586;2023-06-14T08:44:57;37.70;32.70
61374;DHT22;47242;48.158;-1.586;2023-06-14T08:47:23;37.80;32.30
61374;DHT22;47242;48.158;-1.586;2023-06-14T08:49:53;37.80;32.10
61374;DHT22;47242;48.158;-1.586;2023-06-14T08:52:22;37.80;32.10
61374;DHT22;47242;48.158;-1.586;2023-06-14T08:54:48;38.00;31.50
61374;DHT22;47242;48.158;-1.586;2023-06-14T08:57:15;38.10;31.60
61374;DHT22;47242;48.158;-1.586;2023-06-14T08:59:46;38.20;31.70
61374;DHT22;47242;48.158;-1.586;2023-06-14T09:02:15;38.40;31.50
61374;DHT22;47242;48.158;-1.586;2023-06-14T09:04:45;38.40;32.00
61374;DHT22;47242;48.158;-1.586;2023-06-14T09:07:11;38.70;30.80
61374;DHT22;47242;48.158;-1.586;2023-06-14T09:09:41;38.70;31.00
61374;DHT22;47242;48.158;-1.586;2023-06-14T09:12:10;38.90;30.60
61374;DHT22;47242;48.158;-1.586;2023-06-14T09:14:37;39.00;31.20
61374;DHT22;47242;48.158;-1.586;2023-06-14T09:17:05;39.30;30.80
61374;DHT22;47242;48.158;-1.586;2023-06-14T09:19:31;39.40;30.90
61374;DHT22;47242;48.158;-1.586;2023-06-14T09:21:57;39.60;30.70
61374;DHT22;47242;48.158;-1.586;2023-06-14T09:24:24;39.60;30.20
61374;DHT22;47242;48.158;-1.586;2023-06-14T09:26:51;39.50;31.20
61374;DHT22;47242;48.158;-1.586;2023-06-14T09:29:17;39.80;30.40
61374;DHT22;47242;48.158;-1.586;2023-06-14T09:31:46;39.90;30.70
61374;DHT22;47242;48.158;-1.586;2023-06-14T09:34:12;39.90;30.50
61374;DHT22;47242;48.158;-1.586;2023-06-14T09:36:40;40.00;29.40
61374;DHT22;47242;48.158;-1.586;2023-06-14T09:39:06;40.10;29.90
61374;DHT22;47242;48.158;-1.586;2023-06-14T09:41:34;40.00;29.10
61374;DHT22;47242;48.158;-1.586;2023-06-14T09:44:02;40.20;29.70
61374;DHT22;47242;48.158;-1.586;2023-06-14T09:46:29;40.40;30.10
61374;DHT22;47242;48.158;-1.586;2023-06-14T09:48:56;40.60;28.70
61374;DHT22;47242;48.158;-1.586;2023-06-14T09:51:26;40.60;29.60
61374;DHT22;47242;48.158;-1.586;2023-06-14T09:53:54;40.60;28.90
61374;DHT22;47242;48.158;-1.586;2023-06-14T09:56:29;40.70;28.10
61374;DHT22;47242;48.158;-1.586;2023-06-14T09:58:57;40.60;28.90
61374;DHT22;47242;48.158;-1.586;2023-06-14T10:01:27;40.60;29.10
61374;DHT22;47242;48.158;-1.586;2023-06-14T10:03:58;40.60;29.50
61374;DHT22;47242;48.158;-1.586;2023-06-14T10:06:26;40.50;29.90
61374;DHT22;47242;48.158;-1.586;2023-06-14T10:08:57;40.60;29.80
61374;DHT22;47242;48.158;-1.586;2023-06-14T10:11:23;40.50;28.80
61374;DHT22;47242;48.158;-1.586;2023-06-14T10:13:50;40.40;29.70
61374;DHT22;47242;48.158;-1.586;2023-06-14T10:19:22;39.90;30.10
61374;DHT22;47242;48.158;-1.586;2023-06-14T10:22:12;39.80;30.30
61374;DHT22;47242;48.158;-1.586;2023-06-14T10:24:43;39.60;30.70
61374;DHT22;47242;48.158;-1.586;2023-06-14T10:27:09;39.40;31.00
61374;DHT22;47242;48.158;-1.586;2023-06-14T10:32:20;39.00;31.90
61374;DHT22;47242;48.158;-1.586;2023-06-14T10:34:45;38.60;31.50
61374;DHT22;47242;48.158;-1.586;2023-06-14T10:37:18;38.30;31.90
61374;DHT22;47242;48.158;-1.586;2023-06-14T10:39:45;37.80;32.40
61374;DHT22;47242;48.158;-1.586;2023-06-14T10:42:14;37.20;33.50
61374;DHT22;47242;48.158;-1.586;2023-06-14T10:44:55;36.70;34.50
61374;DHT22;47242;48.158;-1.586;2023-06-14T10:52:29;35.30;37.50
61374;DHT22;47242;48.158;-1.586;2023-06-14T10:55:14;35.00;37.00
61374;DHT22;47242;48.158;-1.586;2023-06-14T10:57:50;34.70;37.80
61374;DHT22;47242;48.158;-1.586;2023-06-14T11:00:24;34.40;38.50
61374;DHT22;47242;48.158;-1.586;2023-06-14T11:05:48;33.90;39.60
61374;DHT22;47242;48.158;-1.586;2023-06-14T11:11:08;33.80;37.60
61374;DHT22;47242;48.158;-1.586;2023-06-14T11:13:38;33.70;38.50
61374;DHT22;47242;48.158;-1.586;2023-06-14T11:16:10;33.70;38.00
61374;DHT22;47242;48.158;-1.586;2023-06-14T11:18:37;33.60;37.50
61374;DHT22;47242;48.158;-1.586;2023-06-14T11:21:02;33.60;38.00
61374;DHT22;47242;48.158;-1.586;2023-06-14T11:23:28;33.50;39.40
61374;DHT22;47242;48.158;-1.586;2023-06-14T11:25:54;33.40;39.30
61374;DHT22;47242;48.158;-1.586;2023-06-14T11:28:20;33.30;38.00
61374;DHT22;47242;48.158;-1.586;2023-06-14T11:30:47;33.30;39.30
61374;DHT22;47242;48.158;-1.586;2023-06-14T11:33:17;33.30;38.00
61374;DHT22;47242;48.158;-1.586;2023-06-14T11:35:46;33.20;38.00
61374;DHT22;47242;48.158;-1.586;2023-06-14T11:38:12;33.20;38.00
61374;DHT22;47242;48.158;-1.586;2023-06-14T11:40:38;33.20;37.30
61374;DHT22;47242;48.158;-1.586;2023-06-14T11:43:04;33.10;38.20
61374;DHT22;47242;48.158;-1.586;2023-06-14T11:45:30;32.90;38.40
61374;DHT22;47242;48.158;-1.586;2023-06-14T11:47:57;32.90;37.60
61374;DHT22;47242;48.158;-1.586;2023-06-14T11:50:24;32.80;35.80
61374;DHT22;47242;48.158;-1.586;2023-06-14T11:53:08;32.80;36.10
61374;DHT22;47242;48.158;-1.586;2023-06-14T11:55:38;32.80;35.90
61374;DHT22;47242;48.158;-1.586;2023-06-14T11:58:05;32.70;36.30
61374;DHT22;47242;48.158;-1.586;2023-06-14T12:00:31;32.70;35.00
61374;DHT22;47242;48.158;-1.586;2023-06-14T12:02:57;32.70;34.60
61374;DHT22;47242;48.158;-1.586;2023-06-14T12:05:24;32.80;36.10
61374;DHT22;47242;48.158;-1.586;2023-06-14T12:07:50;32.70;35.30
61374;DHT22;47242;48.158;-1.586;2023-06-14T12:10:19;32.60;36.20
61374;DHT22;47242;48.158;-1.586;2023-06-14T12:12:45;32.50;36.70
61374;DHT22;47242;48.158;-1.586;2023-06-14T12:15:11;32.40;37.30
61374;DHT22;47242;48.158;-1.586;2023-06-14T12:17:38;32.50;36.10
61374;DHT22;47242;48.158;-1.586;2023-06-14T12:20:08;32.40;35.30
61374;DHT22;47242;48.158;-1.586;2023-06-14T12:22:46;32.50;36.70
61374;DHT22;47242;48.158;-1.586;2023-06-14T12:25:30;32.60;37.10
61374;DHT22;47242;48.158;-1.586;2023-06-14T12:27:57;32.50;37.10
61374;DHT22;47242;48.158;-1.586;2023-06-14T12:30:23;32.40;38.00
61374;DHT22;47242;48.158;-1.586;2023-06-14T12:32:48;32.40;38.00
61374;DHT22;47242;48.158;-1.586;2023-06-14T12:35:17;32.50;39.20
61374;DHT22;47242;48.158;-1.586;2023-06-14T12:37:43;32.50;38.00
61374;DHT22;47242;48.158;-1.586;2023-06-14T12:40:09;32.50;37.00
61374;DHT22;47242;48.158;-1.586;2023-06-14T12:42:35;32.50;37.90
61374;DHT22;47242;48.158;-1.586;2023-06-14T12:45:02;32.40;37.20
61374;DHT22;47242;48.158;-1.586;2023-06-14T12:47:28;32.50;37.40
61374;DHT22;47242;48.158;-1.586;2023-06-14T12:49:53;32.30;36.70
61374;DHT22;47242;48.158;-1.586;2023-06-14T12:52:19;32.30;37.40
61374;DHT22;47242;48.158;-1.586;2023-06-14T12:54:45;32.40;37.90
61374;DHT22;47242;48.158;-1.586;2023-06-14T12:57:10;32.30;36.80
61374;DHT22;47242;48.158;-1.586;2023-06-14T12:59:36;32.40;37.80
61374;DHT22;47242;48.158;-1.586;2023-06-14T13:02:19;32.40;38.10
61374;DHT22;47242;48.158;-1.586;2023-06-14T13:04:46;32.40;37.30
61374;DHT22;47242;48.158;-1.586;2023-06-14T13:07:12;32.40;38.90
61374;DHT22;47242;48.158;-1.586;2023-06-14T13:09:38;32.30;38.90
61374;DHT22;47242;48.158;-1.586;2023-06-14T13:12:03;32.30;37.80
61374;DHT22;47242;48.158;-1.586;2023-06-14T13:14:29;32.30;37.30
61374;DHT22;47242;48.158;-1.586;2023-06-14T13:16:55;32.30;37.80
61374;DHT22;47242;48.158;-1.586;2023-06-14T13:19:21;32.30;37.70
61374;DHT22;47242;48.158;-1.586;2023-06-14T13:21:47;32.30;37.90
61374;DHT22;47242;48.158;-1.586;2023-06-14T13:24:13;32.30;37.00
61374;DHT22;47242;48.158;-1.586;2023-06-14T13:26:39;32.30;35.60
61374;DHT22;47242;48.158;-1.586;2023-06-14T13:29:05;32.30;37.00
61374;DHT22;47242;48.158;-1.586;2023-06-14T13:31:30;32.30;36.50
61374;DHT22;47242;48.158;-1.586;2023-06-14T13:33:56;32.20;36.90
61374;DHT22;47242;48.158;-1.586;2023-06-14T13:36:22;32.20;37.00
61374;DHT22;47242;48.158;-1.586;2023-06-14T13:38:47;32.30;36.60
61374;DHT22;47242;48.158;-1.586;2023-06-14T13:41:13;32.20;35.00
61374;DHT22;47242;48.158;-1.586;2023-06-14T13:43:39;32.30;37.30
61374;DHT22;47242;48.158;-1.586;2023-06-14T13:46:04;32.30;37.60
61374;DHT22;47242;48.158;-1.586;2023-06-14T13:48:30;32.30;36.60
61374;DHT22;47242;48.158;-1.586;2023-06-14T13:50:56;32.30;35.80
61374;DHT22;47242;48.158;-1.586;2023-06-14T13:53:22;32.40;36.80
61374;DHT22;47242;48.158;-1.586;2023-06-14T13:55:48;32.40;37.00
61374;DHT22;47242;48.158;-1.586;2023-06-14T13:58:13;32.40;37.10
61374;DHT22;47242;48.158;-1.586;2023-06-14T14:00:40;32.30;36.00
61374;DHT22;47242;48.158;-1.586;2023-06-14T14:03:06;32.30;35.40
61374;DHT22;47242;48.158;-1.586;2023-06-14T14:05:34;32.10;36.50
61374;DHT22;47242;48.158;-1.586;2023-06-14T14:08:00;32.00;37.90
61374;DHT22;47242;48.158;-1.586;2023-06-14T14:10:25;31.90;37.10
61374;DHT22;47242;48.158;-1.586;2023-06-14T14:12:51;31.90;38.10
61374;DHT22;47242;48.158;-1.586;2023-06-14T14:15:18;32.10;38.60
61374;DHT22;47242;48.158;-1.586;2023-06-14T14:17:43;32.10;37.70
61374;DHT22;47242;48.158;-1.586;2023-06-14T14:20:10;32.10;39.40
61374;DHT22;47242;48.158;-1.586;2023-06-14T14:22:38;32.10;36.80
61374;DHT22;47242;48.158;-1.586;2023-06-14T14:25:03;32.00;38.30
61374;DHT22;47242;48.158;-1.586;2023-06-14T14:27:29;32.10;37.60
61374;DHT22;47242;48.158;-1.586;2023-06-14T14:29:55;32.10;35.60
61374;DHT22;47242;48.158;-1.586;2023-06-14T14:32:20;32.10;37.40
61374;DHT22;47242;48.158;-1.586;2023-06-14T14:34:46;32.10;37.50
61374;DHT22;47242;48.158;-1.586;2023-06-14T14:37:11;32.10;38.00
61374;DHT22;47242;48.158;-1.586;2023-06-14T14:39:38;32.20;39.00
61374;DHT22;47242;48.158;-1.586;2023-06-14T14:42:04;32.20;37.90
61374;DHT22;47242;48.158;-1.586;2023-06-14T14:44:30;32.00;37.50
61374;DHT22;47242;48.158;-1.586;2023-06-14T14:46:56;31.70;36.60
61374;DHT22;47242;48.158;-1.586;2023-06-14T14:49:22;31.50;38.00
61374;DHT22;47242;48.158;-1.586;2023-06-14T14:51:47;31.50;38.60
61374;DHT22;47242;48.158;-1.586;2023-06-14T14:54:13;31.70;38.80
61374;DHT22;47242;48.158;-1.586;2023-06-14T14:56:39;31.80;37.30
61374;DHT22;47242;48.158;-1.586;2023-06-14T14:59:04;31.70;38.10
61374;DHT22;47242;48.158;-1.586;2023-06-14T15:01:30;31.30;38.70
61374;DHT22;47242;48.158;-1.586;2023-06-14T15:03:56;31.00;39.50
61374;DHT22;47242;48.158;-1.586;2023-06-14T15:06:22;30.80;40.30
61374;DHT22;47242;48.158;-1.586;2023-06-14T15:08:47;30.80;41.10
61374;DHT22;47242;48.158;-1.586;2023-06-14T15:11:13;30.80;40.60
61374;DHT22;47242;48.158;-1.586;2023-06-14T15:13:38;30.90;40.50
61374;DHT22;47242;48.158;-1.586;2023-06-14T15:16:04;31.10;39.70
61374;DHT22;47242;48.158;-1.586;2023-06-14T15:18:30;31.20;39.50
61374;DHT22;47242;48.158;-1.586;2023-06-14T15:20:56;31.20;39.60
61374;DHT22;47242;48.158;-1.586;2023-06-14T15:23:21;31.20;39.70
61374;DHT22;47242;48.158;-1.586;2023-06-14T15:25:47;31.20;39.10
61374;DHT22;47242;48.158;-1.586;2023-06-14T15:28:13;31.20;39.20
61374;DHT22;47242;48.158;-1.586;2023-06-14T15:30:40;31.20;40.20
61374;DHT22;47242;48.158;-1.586;2023-06-14T15:33:06;31.30;39.20
61374;DHT22;47242;48.158;-1.586;2023-06-14T15:35:32;31.30;39.20
61374;DHT22;47242;48.158;-1.586;2023-06-14T15:37:57;31.30;39.10
61374;DHT22;47242;48.158;-1.586;2023-06-14T15:40:23;31.30;39.50
61374;DHT22;47242;48.158;-1.586;2023-06-14T15:42:49;31.30;40.00
61374;DHT22;47242;48.158;-1.586;2023-06-14T15:45:14;31.20;39.40
61374;DHT22;47242;48.158;-1.586;2023-06-14T15:47:41;31.20;39.50
61374;DHT22;47242;48.158;-1.586;2023-06-14T15:50:07;31.10;38.80
61374;DHT22;47242;48.158;-1.586;2023-06-14T15:52:33;31.00;39.20
61374;DHT22;47242;48.158;-1.586;2023-06-14T15:54:59;31.00;41.10
61374;DHT22;47242;48.158;-1.586;2023-06-14T15:57:25;31.00;40.40
61374;DHT22;47242;48.158;-1.586;2023-06-14T15:59:51;31.10;39.90
61374;DHT22;47242;48.158;-1.586;2023-06-14T16:02:17;31.00;39.70
61374;DHT22;47242;48.158;-1.586;2023-06-14T16:04:42;30.90;40.10
61374;DHT22;47242;48.158;-1.586;2023-06-14T16:07:08;31.00;38.80
61374;DHT22;47242;48.158;-1.586;2023-06-14T16:09:34;30.90;39.90
61374;DHT22;47242;48.158;-1.586;2023-06-14T16:12:00;30.80;39.80
61374;DHT22;47242;48.158;-1.586;2023-06-14T16:14:27;30.90;40.50
61374;DHT22;47242;48.158;-1.586;2023-06-14T16:16:52;30.80;40.40
61374;DHT22;47242;48.158;-1.586;2023-06-14T16:19:18;30.80;40.90
61374;DHT22;47242;48.158;-1.586;2023-06-14T16:21:44;30.80;41.10
61374;DHT22;47242;48.158;-1.586;2023-06-14T16:24:09;30.80;41.30
61374;DHT22;47242;48.158;-1.586;2023-06-14T16:26:35;30.80;41.30
61374;DHT22;47242;48.158;-1.586;2023-06-14T16:29:01;30.80;41.60
61374;DHT22;47242;48.158;-1.586;2023-06-14T16:31:26;30.80;41.70
61374;DHT22;47242;48.158;-1.586;2023-06-14T16:33:52;30.70;41.40
61374;DHT22;47242;48.158;-1.586;2023-06-14T16:36:22;30.70;41.50
61374;DHT22;47242;48.158;-1.586;2023-06-14T16:38:47;30.70;41.20
61374;DHT22;47242;48.158;-1.586;2023-06-14T16:41:14;30.60;40.60
61374;DHT22;47242;48.158;-1.586;2023-06-14T16:43:39;30.50;40.90
61374;DHT22;47242;48.158;-1.586;2023-06-14T16:46:05;30.50;41.60
61374;DHT22;47242;48.158;-1.586;2023-06-14T16:48:31;30.40;40.90
61374;DHT22;47242;48.158;-1.586;2023-06-14T16:50:57;30.30;41.60
61374;DHT22;47242;48.158;-1.586;2023-06-14T16:53:22;30.30;41.70
61374;DHT22;47242;48.158;-1.586;2023-06-14T16:55:48;30.20;41.80
61374;DHT22;47242;48.158;-1.586;2023-06-14T16:58:14;30.10;42.60
61374;DHT22;47242;48.158;-1.586;2023-06-14T17:00:39;30.10;42.70
61374;DHT22;47242;48.158;-1.586;2023-06-14T17:03:05;30.00;43.10
61374;DHT22;47242;48.158;-1.586;2023-06-14T17:05:31;29.90;43.40
61374;DHT22;47242;48.158;-1.586;2023-06-14T17:07:57;29.80;43.80
61374;DHT22;47242;48.158;-1.586;2023-06-14T17:10:24;29.80;43.80
61374;DHT22;47242;48.158;-1.586;2023-06-14T17:12:50;29.70;44.00
61374;DHT22;47242;48.158;-1.586;2023-06-14T17:15:16;29.60;44.40
61374;DHT22;47242;48.158;-1.586;2023-06-14T17:17:41;29.40;45.10
61374;DHT22;47242;48.158;-1.586;2023-06-14T17:20:08;29.30;45.70
61374;DHT22;47242;48.158;-1.586;2023-06-14T17:22:34;29.30;45.50
61374;DHT22;47242;48.158;-1.586;2023-06-14T17:25:00;29.30;45.90
61374;DHT22;47242;48.158;-1.586;2023-06-14T17:27:25;29.20;46.10
61374;DHT22;47242;48.158;-1.586;2023-06-14T17:29:51;29.10;46.10
61374;DHT22;47242;48.158;-1.586;2023-06-14T17:32:18;29.10;46.30
61374;DHT22;47242;48.158;-1.586;2023-06-14T17:34:43;29.00;46.30
61374;DHT22;47242;48.158;-1.586;2023-06-14T17:37:10;28.90;46.40
61374;DHT22;47242;48.158;-1.586;2023-06-14T17:39:36;28.80;46.90
61374;DHT22;47242;48.158;-1.586;2023-06-14T17:42:05;28.90;47.10
61374;DHT22;47242;48.158;-1.586;2023-06-14T17:44:30;28.80;46.70
61374;DHT22;47242;48.158;-1.586;2023-06-14T17:46:56;28.70;46.50
61374;DHT22;47242;48.158;-1.586;2023-06-14T17:49:22;28.70;46.70
61374;DHT22;47242;48.158;-1.586;2023-06-14T17:51:51;28.70;47.30
61374;DHT22;47242;48.158;-1.586;2023-06-14T17:54:17;28.70;46.70
61374;DHT22;47242;48.158;-1.586;2023-06-14T17:56:42;28.60;46.90
61374;DHT22;47242;48.158;-1.586;2023-06-14T17:59:08;28.60;46.70
61374;DHT22;47242;48.158;-1.586;2023-06-14T18:01:33;28.50;47.20
61374;DHT22;47242;48.158;-1.586;2023-06-14T18:03:59;28.50;47.00
61374;DHT22;47242;48.158;-1.586;2023-06-14T18:06:25;28.40;47.10
61374;DHT22;47242;48.158;-1.586;2023-06-14T18:08:50;28.40;47.00
61374;DHT22;47242;48.158;-1.586;2023-06-14T18:11:16;28.30;47.40
61374;DHT22;47242;48.158;-1.586;2023-06-14T18:13:42;28.30;47.40
61374;DHT22;47242;48.158;-1.586;2023-06-14T18:16:08;28.20;48.10
61374;DHT22;47242;48.158;-1.586;2023-06-14T18:18:34;28.10;48.00
61374;DHT22;47242;48.158;-1.586;2023-06-14T18:21:00;28.00;48.50
61374;DHT22;47242;48.158;-1.586;2023-06-14T18:23:27;28.00;48.50
61374;DHT22;47242;48.158;-1.586;2023-06-14T18:25:53;27.90;48.30
61374;DHT22;47242;48.158;-1.586;2023-06-14T18:28:19;27.90;48.60
61374;DHT22;47242;48.158;-1.586;2023-06-14T18:30:44;27.80;48.50
61374;DHT22;47242;48.158;-1.586;2023-06-14T18:33:10;27.90;48.80
61374;DHT22;47242;48.158;-1.586;2023-06-14T18:35:36;27.80;49.10
61374;DHT22;47242;48.158;-1.586;2023-06-14T18:38:02;27.80;49.40
61374;DHT22;47242;48.158;-1.586;2023-06-14T18:40:28;27.70;49.30
61374;DHT22;47242;48.158;-1.586;2023-06-14T18:42:53;27.70;49.70
61374;DHT22;47242;48.158;-1.586;2023-06-14T18:45:20;27.60;49.50
61374;DHT22;47242;48.158;-1.586;2023-06-14T18:47:45;27.40;50.30
61374;DHT22;47242;48.158;-1.586;2023-06-14T18:50:11;27.30;50.10
61374;DHT22;47242;48.158;-1.586;2023-06-14T18:52:37;27.30;50.20
61374;DHT22;47242;48.158;-1.586;2023-06-14T18:55:03;27.20;50.50
61374;DHT22;47242;48.158;-1.586;2023-06-14T18:57:28;27.00;50.60
61374;DHT22;47242;48.158;-1.586;2023-06-14T18:59:55;26.90;50.80
61374;DHT22;47242;48.158;-1.586;2023-06-14T19:02:20;27.00;50.60
61374;DHT22;47242;48.158;-1.586;2023-06-14T19:04:46;27.00;50.30
61374;DHT22;47242;48.158;-1.586;2023-06-14T19:07:11;26.90;49.90
61374;DHT22;47242;48.158;-1.586;2023-06-14T19:09:37;26.90;50.20
61374;DHT22;47242;48.158;-1.586;2023-06-14T19:12:03;26.80;50.00
61374;DHT22;47242;48.158;-1.586;2023-06-14T19:14:29;26.80;50.20
61374;DHT22;47242;48.158;-1.586;2023-06-14T19:16:55;26.70;50.50
61374;DHT22;47242;48.158;-1.586;2023-06-14T19:19:20;26.60;50.60
61374;DHT22;47242;48.158;-1.586;2023-06-14T19:21:46;26.50;50.90
61374;DHT22;47242;48.158;-1.586;2023-06-14T19:24:12;26.50;51.10
61374;DHT22;47242;48.158;-1.586;2023-06-14T19:26:41;26.40;51.30
61374;DHT22;47242;48.158;-1.586;2023-06-14T19:29:08;26.30;51.50
61374;DHT22;47242;48.158;-1.586;2023-06-14T19:31:34;26.30;51.60
61374;DHT22;47242;48.158;-1.586;2023-06-14T19:33:59;26.30;51.40
61374;DHT22;47242;48.158;-1.586;2023-06-14T19:36:25;26.30;51.40
61374;DHT22;47242;48.158;-1.586;2023-06-14T19:38:51;26.20;51.40
61374;DHT22;47242;48.158;-1.586;2023-06-14T19:41:17;26.10;51.60
61374;DHT22;47242;48.158;-1.586;2023-06-14T19:43:44;26.00;51.70
61374;DHT22;47242;48.158;-1.586;2023-06-14T19:46:09;26.00;51.80
61374;DHT22;47242;48.158;-1.586;2023-06-14T19:48:35;25.90;52.00
61374;DHT22;47242;48.158;-1.586;2023-06-14T19:51:01;25.80;52.00
61374;DHT22;47242;48.158;-1.586;2023-06-14T19:53:26;25.70;52.20
61374;DHT22;47242;48.158;-1.586;2023-06-14T19:55:52;25.60;52.40
61374;DHT22;47242;48.158;-1.586;2023-06-14T19:58:18;25.60;52.50